RKSI/ICN METAR and TAF weather

Enter ICAO airport designator
Station Type Date Time Source
RKSI METAR 2021/07/30 08:00 UTC NOAA

RKSI 300800Z 23014KT CAVOK 30/22 Q0999 NOSIG


Station Type Date Time Source
RKSI Decoded METAR 2021/07/30 08:00 UTC NOAA

Incheon International Airport, Korea, South (RKSI) 37-28N 126-27E
Jul 30, 2021 - 04:00 AM EDT / 2021.07.30 0800 UTC
Wind: from the SW (230 degrees) at 16 MPH (14 KT):0
Visibility: greater than 7 mile(s):0
Temperature: 86 F (30 C)
Heat index: 91.8 F (33.2 C):1
Dew Point: 71 F (22 C)
Relative Humidity: 62%
Pressure (altimeter): 29.50 in. Hg (0999 hPa)
ob: RKSI 300800Z 23014KT CAVOK 30/22 Q0999 NOSIG
cycle: 8

Station Type Date Time Source
RKSI TAF 2021/07/30 06:06 UTC NOAA

TAF RKSI 300500Z 3006/3112 22010KT 9999 FEW030 BKN200 TN26/3020Z TX31/3105Z
BECMG 3011/3012 16008KT FEW010 BKN025 OVC080
BECMG 3014/3015 6000 -RA
TEMPO 3017/3019 4000
BECMG 3021/3022 NSW SCT030
BECMG 3102/3103 24010KT

Example: see airport list